sensor_id;sensor_type;location;lat;lon;timestamp;pressure;altitude;pressure_sealevel;temperature;humidity
17362;BME280;8798;51.938;4.348;2023-03-13T00:00:54;100392.56;;;10.96;79.21
17362;BME280;8798;51.938;4.348;2023-03-13T00:03:22;100379.13;;;10.96;79.38
17362;BME280;8798;51.938;4.348;2023-03-13T00:05:54;100374.75;;;10.95;78.87
17362;BME280;8798;51.938;4.348;2023-03-13T00:08:23;100372.91;;;10.95;79.23
17362;BME280;8798;51.938;4.348;2023-03-13T00:10:51;100371.91;;;10.96;78.86
17362;BME280;8798;51.938;4.348;2023-03-13T00:13:19;100370.22;;;10.95;79.35
17362;BME280;8798;51.938;4.348;2023-03-13T00:15:48;100377.13;;;10.98;79.62
17362;BME280;8798;51.938;4.348;2023-03-13T00:18:15;100383.13;;;11.00;79.45
17362;BME280;8798;51.938;4.348;2023-03-13T00:20:43;100385.66;;;11.02;79.16
17362;BME280;8798;51.938;4.348;2023-03-13T00:23:14;100372.22;;;11.02;79.18
17362;BME280;8798;51.938;4.348;2023-03-13T00:25:42;100389.88;;;11.04;79.51
17362;BME280;8798;51.938;4.348;2023-03-13T00:28:09;100383.47;;;11.05;80.03
17362;BME280;8798;51.938;4.348;2023-03-13T00:30:37;100392.22;;;11.07;80.02
17362;BME280;8798;51.938;4.348;2023-03-13T00:33:07;100403.50;;;11.11;79.54
17362;BME280;8798;51.938;4.348;2023-03-13T00:35:35;100393.44;;;11.13;79.97
17362;BME280;8798;51.938;4.348;2023-03-13T00:38:02;100403.16;;;11.14;80.24
17362;BME280;8798;51.938;4.348;2023-03-13T00:40:30;100404.81;;;11.15;79.85
17362;BME280;8798;51.938;4.348;2023-03-13T00:42:58;100399.44;;;11.15;80.60
17362;BME280;8798;51.938;4.348;2023-03-13T00:45:26;100394.94;;;11.15;80.64
17362;BME280;8798;51.938;4.348;2023-03-13T00:47:54;100384.34;;;11.14;80.40
17362;BME280;8798;51.938;4.348;2023-03-13T00:50:23;100393.09;;;11.16;80.35
17362;BME280;8798;51.938;4.348;2023-03-13T00:52:51;100394.59;;;11.18;80.36
17362;BME280;8798;51.938;4.348;2023-03-13T00:55:19;100392.59;;;11.21;80.67
17362;BME280;8798;51.938;4.348;2023-03-13T00:57:47;100396.94;;;11.22;80.46
17362;BME280;8798;51.938;4.348;2023-03-13T01:00:15;100401.97;;;11.25;80.60
17362;BME280;8798;51.938;4.348;2023-03-13T01:02:43;100400.16;;;11.25;80.57
17362;BME280;8798;51.938;4.348;2023-03-13T01:05:11;100399.97;;;11.27;80.28
17362;BME280;8798;51.938;4.348;2023-03-13T01:07:40;100410.38;;;11.30;80.73
17362;BME280;8798;51.938;4.348;2023-03-13T01:10:09;100401.31;;;11.31;81.16
17362;BME280;8798;51.938;4.348;2023-03-13T01:12:37;100409.88;;;11.34;80.81
17362;BME280;8798;51.938;4.348;2023-03-13T01:15:06;100416.78;;;11.37;81.29
17362;BME280;8798;51.938;4.348;2023-03-13T01:17:35;100420.97;;;11.39;81.05
17362;BME280;8798;51.938;4.348;2023-03-13T01:20:04;100425.19;;;11.42;81.56
17362;BME280;8798;51.938;4.348;2023-03-13T01:22:33;100429.38;;;11.45;81.45
17362;BME280;8798;51.938;4.348;2023-03-13T01:25:02;100436.28;;;11.47;81.00
17362;BME280;8798;51.938;4.348;2023-03-13T01:27:30;100448.38;;;11.51;81.38
17362;BME280;8798;51.938;4.348;2023-03-13T01:29:58;100454.28;;;11.55;81.16
17362;BME280;8798;51.938;4.348;2023-03-13T01:32:26;100463.00;;;11.57;81.79
17362;BME280;8798;51.938;4.348;2023-03-13T01:34:54;100454.78;;;11.58;81.42
17362;BME280;8798;51.938;4.348;2023-03-13T01:37:21;100468.72;;;11.62;81.20
17362;BME280;8798;51.938;4.348;2023-03-13T01:39:49;100463.19;;;11.63;81.50
17362;BME280;8798;51.938;4.348;2023-03-13T01:42:19;100471.78;;;11.67;81.48
17362;BME280;8798;51.938;4.348;2023-03-13T01:44:49;100487.38;;;11.72;81.86
17362;BME280;8798;51.938;4.348;2023-03-13T01:47:17;100489.56;;;11.76;81.78
17362;BME280;8798;51.938;4.348;2023-03-13T01:49:46;100494.66;;;11.79;82.01
17362;BME280;8798;51.938;4.348;2023-03-13T01:52:17;100500.53;;;11.83;82.28
17362;BME280;8798;51.938;4.348;2023-03-13T01:54:48;100508.97;;;11.88;82.06
17362;BME280;8798;51.938;4.348;2023-03-13T01:57:22;100522.75;;;11.93;82.47
17362;BME280;8798;51.938;4.348;2023-03-13T01:59:55;100533.16;;;11.96;81.86
17362;BME280;8798;51.938;4.348;2023-03-13T02:02:25;100547.81;;;12.02;82.77
17362;BME280;8798;51.938;4.348;2023-03-13T02:04:57;100553.69;;;12.05;82.38
17362;BME280;8798;51.938;4.348;2023-03-13T02:07:29;100556.06;;;12.09;82.42
17362;BME280;8798;51.938;4.348;2023-03-13T02:09:58;100551.34;;;12.11;82.18
17362;BME280;8798;51.938;4.348;2023-03-13T02:12:31;100543.94;;;12.13;82.56
17362;BME280;8798;51.938;4.348;2023-03-13T02:15:02;100540.06;;;12.15;82.74
17362;BME280;8798;51.938;4.348;2023-03-13T02:17:33;100547.31;;;12.15;82.45
17362;BME280;8798;51.938;4.348;2023-03-13T02:20:03;100532.66;;;12.17;82.54
17362;BME280;8798;51.938;4.348;2023-03-13T02:22:36;100530.81;;;12.18;82.55
17362;BME280;8798;51.938;4.348;2023-03-13T02:25:11;100538.53;;;12.21;83.09
17362;BME280;8798;51.938;4.348;2023-03-13T02:27:44;100526.78;;;12.22;83.06
17362;BME280;8798;51.938;4.348;2023-03-13T02:30:14;100530.16;;;12.24;83.21
17362;BME280;8798;51.938;4.348;2023-03-13T02:32:42;100527.25;;;12.25;82.53
17362;BME280;8798;51.938;4.348;2023-03-13T02:35:14;100533.16;;;12.29;82.99
17362;BME280;8798;51.938;4.348;2023-03-13T02:37:47;100528.41;;;12.31;83.11
17362;BME280;8798;51.938;4.348;2023-03-13T02:40:20;100528.25;;;12.33;82.87
17362;BME280;8798;51.938;4.348;2023-03-13T02:42:50;100527.06;;;12.35;83.32
17362;BME280;8798;51.938;4.348;2023-03-13T02:45:21;100521.34;;;12.38;82.97
17362;BME280;8798;51.938;4.348;2023-03-13T02:47:49;100530.09;;;12.40;82.78
17362;BME280;8798;51.938;4.348;2023-03-13T02:50:17;100529.75;;;12.43;83.37
17362;BME280;8798;51.938;4.348;2023-03-13T02:52:48;100535.66;;;12.47;83.67
17362;BME280;8798;51.938;4.348;2023-03-13T02:55:21;100538.00;;;12.50;83.07
17362;BME280;8798;51.938;4.348;2023-03-13T02:57:52;100539.50;;;12.53;83.03
17362;BME280;8798;51.938;4.348;2023-03-13T03:00:20;100541.84;;;12.56;83.09
17362;BME280;8798;51.938;4.348;2023-03-13T03:02:52;100549.59;;;12.59;83.50
17362;BME280;8798;51.938;4.348;2023-03-13T03:05:21;100550.91;;;12.63;83.05
17362;BME280;8798;51.938;4.348;2023-03-13T03:07:50;100556.81;;;12.66;83.11
17362;BME280;8798;51.938;4.348;2023-03-13T03:10:18;100555.63;;;12.69;83.47
17362;BME280;8798;51.938;4.348;2023-03-13T03:12:46;100564.19;;;12.73;83.15
17362;BME280;8798;51.938;4.348;2023-03-13T03:15:15;100563.84;;;12.76;83.35
17362;BME280;8798;51.938;4.348;2023-03-13T03:17:43;100561.81;;;12.78;83.37
17362;BME280;8798;51.938;4.348;2023-03-13T03:20:11;100559.81;;;12.80;83.37
17362;BME280;8798;51.938;4.348;2023-03-13T03:22:39;100559.63;;;12.81;83.66
17362;BME280;8798;51.938;4.348;2023-03-13T03:25:07;100551.38;;;12.83;83.77
17362;BME280;8798;51.938;4.348;2023-03-13T03:27:35;100545.97;;;12.83;83.42
17362;BME280;8798;51.938;4.348;2023-03-13T03:30:05;100535.19;;;12.83;83.91
17362;BME280;8798;51.938;4.348;2023-03-13T03:32:35;100522.56;;;12.83;83.61
17362;BME280;8798;51.938;4.348;2023-03-13T03:35:03;100514.50;;;12.83;84.02
17362;BME280;8798;51.938;4.348;2023-03-13T03:37:31;100507.91;;;12.86;83.67
17362;BME280;8798;51.938;4.348;2023-03-13T03:39:59;100495.44;;;12.85;83.88
17362;BME280;8798;51.938;4.348;2023-03-13T03:42:26;100482.13;;;12.83;83.42
17362;BME280;8798;51.938;4.348;2023-03-13T03:44:54;100471.34;;;12.83;84.13
17362;BME280;8798;51.938;4.348;2023-03-13T03:47:22;100458.88;;;12.82;83.98
17362;BME280;8798;51.938;4.348;2023-03-13T03:49:51;100448.94;;;12.83;84.10
17362;BME280;8798;51.938;4.348;2023-03-13T03:52:19;100448.75;;;12.84;83.99
17362;BME280;8798;51.938;4.348;2023-03-13T03:54:47;100443.38;;;12.84;84.16
17362;BME280;8798;51.938;4.348;2023-03-13T03:57:15;100428.03;;;12.85;84.03
17362;BME280;8798;51.938;4.348;2023-03-13T03:59:43;100425.16;;;12.86;83.69
17362;BME280;8798;51.938;4.348;2023-03-13T04:02:11;100409.16;;;12.85;83.96
17362;BME280;8798;51.938;4.348;2023-03-13T04:04:39;100401.06;;;12.85;83.91
17362;BME280;8798;51.938;4.348;2023-03-13T04:07:08;100398.38;;;12.85;84.28
17362;BME280;8798;51.938;4.348;2023-03-13T04:09:36;100393.81;;;12.85;84.29
17362;BME280;8798;51.938;4.348;2023-03-13T04:12:05;100382.22;;;12.85;83.99
17362;BME280;8798;51.938;4.348;2023-03-13T04:14:32;100369.56;;;12.85;84.16
17362;BME280;8798;51.938;4.348;2023-03-13T04:17:00;100369.41;;;12.87;84.34
17362;BME280;8798;51.938;4.348;2023-03-13T04:19:28;100358.59;;;12.87;84.33
17362;BME280;8798;51.938;4.348;2023-03-13T04:21:56;100352.38;;;12.86;84.33
17362;BME280;8798;51.938;4.348;2023-03-13T04:24:25;100351.34;;;12.87;84.04
17362;BME280;8798;51.938;4.348;2023-03-13T04:26:53;100335.19;;;12.87;84.39
17362;BME280;8798;51.938;4.348;2023-03-13T04:29:21;100328.78;;;12.88;84.33
17362;BME280;8798;51.938;4.348;2023-03-13T04:31:49;100326.09;;;12.88;83.82
17362;BME280;8798;51.938;4.348;2023-03-13T04:34:16;100320.69;;;12.88;84.25
17362;BME280;8798;51.938;4.348;2023-03-13T04:36:44;100319.66;;;12.89;84.35
17362;BME280;8798;51.938;4.348;2023-03-13T04:39:12;100313.91;;;12.93;84.34
17362;BME280;8798;51.938;4.348;2023-03-13T04:41:41;100325.34;;;12.95;84.73
17362;BME280;8798;51.938;4.348;2023-03-13T04:44:09;100320.47;;;12.98;84.48
17362;BME280;8798;51.938;4.348;2023-03-13T04:46:37;100321.97;;;13.01;84.27
17362;BME280;8798;51.938;4.348;2023-03-13T04:49:05;100321.75;;;13.02;84.12
17362;BME280;8798;51.938;4.348;2023-03-13T04:51:34;100320.75;;;13.03;84.37
17362;BME280;8798;51.938;4.348;2023-03-13T04:54:02;100326.59;;;13.07;84.52
17362;BME280;8798;51.938;4.348;2023-03-13T04:56:30;100341.41;;;13.11;84.67
17362;BME280;8798;51.938;4.348;2023-03-13T04:59:10;100333.34;;;13.11;84.15
17362;BME280;8798;51.938;4.348;2023-03-13T05:01:39;100323.19;;;13.13;84.12
17362;BME280;8798;51.938;4.348;2023-03-13T05:04:08;100330.94;;;13.16;84.32
17362;BME280;8798;51.938;4.348;2023-03-13T05:06:35;100332.41;;;13.19;84.39
17362;BME280;8798;51.938;4.348;2023-03-13T05:09:04;100337.63;;;13.20;84.71
17362;BME280;8798;51.938;4.348;2023-03-13T05:11:32;100339.97;;;13.23;84.76
17362;BME280;8798;51.938;4.348;2023-03-13T05:14:00;100344.84;;;13.28;84.64
17362;BME280;8798;51.938;4.348;2023-03-13T05:16:31;100340.28;;;13.28;84.16
17362;BME280;8798;51.938;4.348;2023-03-13T05:18:59;100338.25;;;13.30;84.56
17362;BME280;8798;51.938;4.348;2023-03-13T05:21:27;100341.41;;;13.34;84.62
17362;BME280;8798;51.938;4.348;2023-03-13T05:23:55;100342.91;;;13.37;84.32
17362;BME280;8798;51.938;4.348;2023-03-13T05:26:23;100345.22;;;13.40;84.70
17362;BME280;8798;51.938;4.348;2023-03-13T05:28:50;100332.78;;;13.39;84.36
17362;BME280;8798;51.938;4.348;2023-03-13T05:31:18;100333.22;;;13.42;84.21
17362;BME280;8798;51.938;4.348;2023-03-13T05:33:47;100344.53;;;13.46;84.31
17362;BME280;8798;51.938;4.348;2023-03-13T05:36:15;100346.00;;;13.48;84.11
17362;BME280;8798;51.938;4.348;2023-03-13T05:38:44;100342.09;;;13.51;83.97
17362;BME280;8798;51.938;4.348;2023-03-13T05:41:11;100341.91;;;13.52;83.95
17362;BME280;8798;51.938;4.348;2023-03-13T05:43:39;100345.09;;;13.56;83.87
17362;BME280;8798;51.938;4.348;2023-03-13T05:46:07;100340.53;;;13.57;83.84
17362;BME280;8798;51.938;4.348;2023-03-13T05:48:35;100336.63;;;13.59;83.72
17362;BME280;8798;51.938;4.348;2023-03-13T05:51:04;100328.53;;;13.59;84.15
17362;BME280;8798;51.938;4.348;2023-03-13T05:53:32;100314.19;;;13.59;83.73
17362;BME280;8798;51.938;4.348;2023-03-13T05:56:00;100308.63;;;13.60;83.83
17362;BME280;8798;51.938;4.348;2023-03-13T05:58:28;100289.06;;;13.58;83.51
17362;BME280;8798;51.938;4.348;2023-03-13T06:00:55;100285.34;;;13.59;83.79
17362;BME280;8798;51.938;4.348;2023-03-13T06:03:23;100271.84;;;13.59;83.38
17362;BME280;8798;51.938;4.348;2023-03-13T06:05:56;100267.28;;;13.60;83.32
17362;BME280;8798;51.938;4.348;2023-03-13T06:08:25;100270.84;;;13.60;83.70
17362;BME280;8798;51.938;4.348;2023-03-13T06:10:53;100259.84;;;13.62;83.31
17362;BME280;8798;51.938;4.348;2023-03-13T06:13:21;100234.28;;;13.58;83.10
17362;BME280;8798;51.938;4.348;2023-03-13T06:15:53;100203.44;;;13.52;83.26
17362;BME280;8798;51.938;4.348;2023-03-13T06:18:21;100173.31;;;13.48;83.01
17362;BME280;8798;51.938;4.348;2023-03-13T06:20:55;100144.19;;;13.44;83.06
17362;BME280;8798;51.938;4.348;2023-03-13T06:23:25;100106.53;;;13.36;82.88
17362;BME280;8798;51.938;4.348;2023-03-13T06:25:53;100074.72;;;13.31;83.27
17362;BME280;8798;51.938;4.348;2023-03-13T06:28:21;100057.25;;;13.27;82.87
17362;BME280;8798;51.938;4.348;2023-03-13T06:30:48;100027.44;;;13.20;82.71
17362;BME280;8798;51.938;4.348;2023-03-13T06:33:16;100004.59;;;13.16;82.98
17362;BME280;8798;51.938;4.348;2023-03-13T06:35:44;99980.06;;;13.11;82.67
17362;BME280;8798;51.938;4.348;2023-03-13T06:38:22;99950.16;;;13.06;82.95
17362;BME280;8798;51.938;4.348;2023-03-13T06:40:52;99928.31;;;13.01;82.89
17362;BME280;8798;51.938;4.348;2023-03-13T06:43:20;99915.19;;;12.98;83.13
17362;BME280;8798;51.938;4.348;2023-03-13T06:45:48;99903.59;;;12.97;82.71
17362;BME280;8798;51.938;4.348;2023-03-13T06:48:16;99913.53;;;12.97;83.20
17362;BME280;8798;51.938;4.348;2023-03-13T06:50:44;99899.22;;;12.96;82.70
17362;BME280;8798;51.938;4.348;2023-03-13T06:53:14;99893.84;;;12.96;82.81
17362;BME280;8798;51.938;4.348;2023-03-13T06:55:43;99885.94;;;12.95;82.73
17362;BME280;8798;51.938;4.348;2023-03-13T06:58:13;99891.97;;;12.97;82.79
17362;BME280;8798;51.938;4.348;2023-03-13T07:00:56;99887.59;;;12.96;83.36
17362;BME280;8798;51.938;4.348;2023-03-13T07:03:24;99885.75;;;12.96;82.86
17362;BME280;8798;51.938;4.348;2023-03-13T07:05:55;99875.97;;;12.95;83.45
17362;BME280;8798;51.938;4.348;2023-03-13T07:08:23;99883.06;;;12.96;83.19
17362;BME280;8798;51.938;4.348;2023-03-13T07:10:52;99878.50;;;12.97;82.85
17362;BME280;8798;51.938;4.348;2023-03-13T07:13:22;99873.09;;;12.97;83.01
17362;BME280;8798;51.938;4.348;2023-03-13T07:15:50;99873.94;;;12.97;82.89
17362;BME280;8798;51.938;4.348;2023-03-13T07:18:18;99888.88;;;13.00;83.96
17362;BME280;8798;51.938;4.348;2023-03-13T07:20:51;99878.94;;;13.00;83.49
17362;BME280;8798;51.938;4.348;2023-03-13T07:23:20;99879.78;;;13.01;83.40
17362;BME280;8798;51.938;4.348;2023-03-13T07:25:52;99900.97;;;13.04;83.28
17362;BME280;8798;51.938;4.348;2023-03-13T07:28:21;99908.50;;;13.08;83.24
17362;BME280;8798;51.938;4.348;2023-03-13T07:30:50;99915.34;;;13.11;83.37
17362;BME280;8798;51.938;4.348;2023-03-13T07:33:18;99944.44;;;13.16;82.91
17362;BME280;8798;51.938;4.348;2023-03-13T07:35:47;99950.09;;;13.21;82.83
17362;BME280;8798;51.938;4.348;2023-03-13T07:38:16;99975.47;;;13.26;83.17
17362;BME280;8798;51.938;4.348;2023-03-13T07:40:47;99979.50;;;13.30;83.60
17362;BME280;8798;51.938;4.348;2023-03-13T07:43:16;99991.75;;;13.33;83.16
17362;BME280;8798;51.938;4.348;2023-03-13T07:45:52;99978.44;;;13.31;83.02
17362;BME280;8798;51.938;4.348;2023-03-13T07:48:22;99967.00;;;13.29;83.06
17362;BME280;8798;51.938;4.348;2023-03-13T07:50:50;99973.06;;;13.31;83.58
17362;BME280;8798;51.938;4.348;2023-03-13T07:53:18;100003.47;;;13.40;83.24
17362;BME280;8798;51.938;4.348;2023-03-13T07:55:52;100032.19;;;13.48;83.41
17362;BME280;8798;51.938;4.348;2023-03-13T07:58:20;100059.88;;;13.57;83.57
17362;BME280;8798;51.938;4.348;2023-03-13T08:00:48;100080.72;;;13.63;83.54
17362;BME280;8798;51.938;4.348;2023-03-13T08:03:18;100084.03;;;13.65;83.27
17362;BME280;8798;51.938;4.348;2023-03-13T08:05:46;100081.97;;;13.67;83.31
17362;BME280;8798;51.938;4.348;2023-03-13T08:08:14;100074.72;;;13.67;83.50
17362;BME280;8798;51.938;4.348;2023-03-13T08:10:42;100075.56;;;13.68;83.40
17362;BME280;8798;51.938;4.348;2023-03-13T08:13:10;100071.84;;;13.69;83.49
17362;BME280;8798;51.938;4.348;2023-03-13T08:15:38;100081.22;;;13.73;83.54
17362;BME280;8798;51.938;4.348;2023-03-13T08:18:06;100094.34;;;13.76;83.37
17362;BME280;8798;51.938;4.348;2023-03-13T08:20:35;100103.72;;;13.80;83.16
17362;BME280;8798;51.938;4.348;2023-03-13T08:23:03;100108.75;;;13.83;83.16
17362;BME280;8798;51.938;4.348;2023-03-13T08:25:30;100113.75;;;13.86;83.23
17362;BME280;8798;51.938;4.348;2023-03-13T08:27:59;100133.56;;;13.93;83.03
17362;BME280;8798;51.938;4.348;2023-03-13T08:30:28;100146.50;;;13.98;83.22
17362;BME280;8798;51.938;4.348;2023-03-13T08:32:55;100143.63;;;14.00;83.18
17362;BME280;8798;51.938;4.348;2023-03-13T08:35:23;100134.88;;;13.97;83.32
17362;BME280;8798;51.938;4.348;2023-03-13T08:37:53;100110.91;;;13.94;83.18
17362;BME280;8798;51.938;4.348;2023-03-13T08:40:20;100103.03;;;13.93;83.08
17362;BME280;8798;51.938;4.348;2023-03-13T08:42:48;100094.94;;;13.93;82.60
17362;BME280;8798;51.938;4.348;2023-03-13T08:45:16;100094.53;;;13.96;82.99
17362;BME280;8798;51.938;4.348;2023-03-13T08:47:44;100109.97;;;14.02;82.68
17362;BME280;8798;51.938;4.348;2023-03-13T08:50:12;100168.31;;;14.18;82.59
17362;BME280;8798;51.938;4.348;2023-03-13T08:52:43;100217.28;;;14.30;82.66
17362;BME280;8798;51.938;4.348;2023-03-13T08:55:12;100241.28;;;14.39;82.69
17362;BME280;8798;51.938;4.348;2023-03-13T08:57:40;100270.03;;;14.47;82.47
17362;BME280;8798;51.938;4.348;2023-03-13T09:00:08;100295.97;;;14.56;82.42
17362;BME280;8798;51.938;4.348;2023-03-13T09:02:39;100306.00;;;14.62;82.29
17362;BME280;8798;51.938;4.348;2023-03-13T09:05:07;100297.69;;;14.64;82.50
17362;BME280;8798;51.938;4.348;2023-03-13T09:07:35;100308.94;;;14.68;82.12
17362;BME280;8798;51.938;4.348;2023-03-13T09:10:05;100311.25;;;14.71;81.73
17362;BME280;8798;51.938;4.348;2023-03-13T09:12:34;100304.63;;;14.73;81.77
17362;BME280;8798;51.938;4.348;2023-03-13T09:15:02;100309.47;;;14.78;81.67
17362;BME280;8798;51.938;4.348;2023-03-13T09:17:30;100333.69;;;14.86;81.69
17362;BME280;8798;51.938;4.348;2023-03-13T09:19:58;100356.22;;;14.93;81.52
17362;BME280;8798;51.938;4.348;2023-03-13T09:22:26;100352.94;;;14.98;81.31
17362;BME280;8798;51.938;4.348;2023-03-13T09:24:54;100364.22;;;15.01;81.25
17362;BME280;8798;51.938;4.348;2023-03-13T09:27:22;100354.25;;;15.02;81.15
17362;BME280;8798;51.938;4.348;2023-03-13T09:29:51;100360.09;;;15.05;80.94
17362;BME280;8798;51.938;4.348;2023-03-13T09:32:19;100379.75;;;15.14;80.73
17362;BME280;8798;51.938;4.348;2023-03-13T09:34:47;100389.78;;;15.20;80.65
17362;BME280;8798;51.938;4.348;2023-03-13T09:37:15;100402.72;;;15.25;80.74
17362;BME280;8798;51.938;4.348;2023-03-13T09:39:43;100391.50;;;15.28;80.44
17362;BME280;8798;51.938;4.348;2023-03-13T09:42:14;100377.97;;;15.28;80.30
17362;BME280;8798;51.938;4.348;2023-03-13T09:44:45;100363.84;;;15.26;80.38
17362;BME280;8798;51.938;4.348;2023-03-13T09:47:20;100366.56;;;15.33;79.94
17362;BME280;8798;51.938;4.348;2023-03-13T09:49:53;100381.84;;;15.40;79.87
17362;BME280;8798;51.938;4.348;2023-03-13T09:52:24;100383.31;;;15.43;79.68
17362;BME280;8798;51.938;4.348;2023-03-13T09:54:55;100374.84;;;15.46;79.76
17362;BME280;8798;51.938;4.348;2023-03-13T09:57:30;100394.84;;;15.52;79.65
17362;BME280;8798;51.938;4.348;2023-03-13T10:00:02;100390.09;;;15.54;79.37
17362;BME280;8798;51.938;4.348;2023-03-13T10:02:37;100382.63;;;15.56;79.27
17362;BME280;8798;51.938;4.348;2023-03-13T10:05:09;100373.44;;;15.57;78.88
17362;BME280;8798;51.938;4.348;2023-03-13T10:07:40;100379.09;;;15.62;78.80
17362;BME280;8798;51.938;4.348;2023-03-13T10:10:13;100397.94;;;15.70;78.67
17362;BME280;8798;51.938;4.348;2023-03-13T10:12:44;100390.47;;;15.72;78.53
17362;BME280;8798;51.938;4.348;2023-03-13T10:15:22;100381.31;;;15.73;78.20
17362;BME280;8798;51.938;4.348;2023-03-13T10:17:58;100372.78;;;15.76;78.35
17362;BME280;8798;51.938;4.348;2023-03-13T10:20:28;100373.03;;;15.81;78.03
17362;BME280;8798;51.938;4.348;2023-03-13T10:22:58;100386.19;;;15.84;77.93
17362;BME280;8798;51.938;4.348;2023-03-13T10:25:29;100355.75;;;15.82;77.55
17362;BME280;8798;51.938;4.348;2023-03-13T10:28:00;100320.50;;;15.76;77.31
17362;BME280;8798;51.938;4.348;2023-03-13T10:30:30;100295.50;;;15.74;77.17
17362;BME280;8798;51.938;4.348;2023-03-13T10:33:17;100272.16;;;15.73;76.88
17362;BME280;8798;51.938;4.348;2023-03-13T10:35:45;100276.34;;;15.75;76.86
17362;BME280;8798;51.938;4.348;2023-03-13T10:38:16;100294.31;;;15.83;76.75
17362;BME280;8798;51.938;4.348;2023-03-13T10:40:55;100325.59;;;15.92;76.64
17362;BME280;8798;51.938;4.348;2023-03-13T10:43:25;100321.44;;;15.96;76.40
17362;BME280;8798;51.938;4.348;2023-03-13T10:45:54;100315.84;;;15.98;76.33
17362;BME280;8798;51.938;4.348;2023-03-13T10:48:25;100332.97;;;16.05;76.07
17362;BME280;8798;51.938;4.348;2023-03-13T10:50:55;100345.53;;;16.12;76.32
17362;BME280;8798;51.938;4.348;2023-03-13T10:53:31;100377.69;;;16.22;75.80
17362;BME280;8798;51.938;4.348;2023-03-13T10:56:08;100398.13;;;16.31;75.73
17362;BME280;8798;51.938;4.348;2023-03-13T10:58:40;100430.31;;;16.41;75.49
17362;BME280;8798;51.938;4.348;2023-03-13T11:01:15;100402.34;;;16.41;75.15
17362;BME280;8798;51.938;4.348;2023-03-13T11:03:47;100364.38;;;16.34;74.97
17362;BME280;8798;51.938;4.348;2023-03-13T11:06:27;100344.56;;;16.33;74.71
17362;BME280;8798;51.938;4.348;2023-03-13T11:09:01;100289.69;;;16.25;74.58
17362;BME280;8798;51.938;4.348;2023-03-13T11:11:30;100241.31;;;16.15;74.55
17362;BME280;8798;51.938;4.348;2023-03-13T11:14:14;100178.72;;;16.03;74.30
17362;BME280;8798;51.938;4.348;2023-03-13T11:16:46;100149.53;;;15.99;74.08
17362;BME280;8798;51.938;4.348;2023-03-13T11:19:40;100120.16;;;15.96;73.78
17362;BME280;8798;51.938;4.348;2023-03-13T11:22:28;100091.59;;;15.93;73.82
17362;BME280;8798;51.938;4.348;2023-03-13T11:25:09;100080.75;;;15.93;73.48
17362;BME280;8798;51.938;4.348;2023-03-13T11:27:47;100070.94;;;15.92;73.14
17362;BME280;8798;51.938;4.348;2023-03-13T11:30:37;100063.03;;;15.90;73.00
17362;BME280;8798;51.938;4.348;2023-03-13T11:33:14;100068.44;;;15.97;72.40
17362;BME280;8798;51.938;4.348;2023-03-13T11:35:49;100058.66;;;15.96;72.58
17362;BME280;8798;51.938;4.348;2023-03-13T11:38:26;100037.19;;;15.95;72.09
17362;BME280;8798;51.938;4.348;2023-03-13T11:41:05;100015.31;;;15.89;71.97
17362;BME280;8798;51.938;4.348;2023-03-13T11:46:48;99954.88;;;15.82;71.47
17362;BME280;8798;51.938;4.348;2023-03-13T11:49:26;99965.53;;;15.84;71.29
17362;BME280;8798;51.938;4.348;2023-03-13T11:52:08;99991.13;;;15.95;71.24
17362;BME280;8798;51.938;4.348;2023-03-13T11:54:55;100033.06;;;16.05;70.88
17362;BME280;8798;51.938;4.348;2023-03-13T11:57:27;100049.28;;;16.12;70.70
17362;BME280;8798;51.938;4.348;2023-03-13T12:00:23;100028.88;;;16.09;70.55
17362;BME280;8798;51.938;4.348;2023-03-13T12:02:58;99994.28;;;16.05;70.53
17362;BME280;8798;51.938;4.348;2023-03-13T12:05:36;99975.72;;;16.02;70.55
17362;BME280;8798;51.938;4.348;2023-03-13T12:08:10;99926.78;;;15.90;70.41
17362;BME280;8798;51.938;4.348;2023-03-13T12:10:46;99874.88;;;15.80;70.39
17362;BME280;8798;51.938;4.348;2023-03-13T12:13:18;99839.09;;;15.71;70.25
17362;BME280;8798;51.938;4.348;2023-03-13T12:15:50;99820.13;;;15.71;69.89
17362;BME280;8798;51.938;4.348;2023-03-13T12:18:24;99837.84;;;15.74;70.32
17362;BME280;8798;51.938;4.348;2023-03-13T12:20:57;99875.50;;;15.82;69.84
17362;BME280;8798;51.938;4.348;2023-03-13T12:23:39;99870.72;;;15.84;69.86
17362;BME280;8798;51.938;4.348;2023-03-13T12:26:12;99882.19;;;15.86;69.77
17362;BME280;8798;51.938;4.348;2023-03-13T12:28:44;99871.16;;;15.87;69.62
17362;BME280;8798;51.938;4.348;2023-03-13T12:31:20;99831.34;;;15.81;69.75
17362;BME280;8798;51.938;4.348;2023-03-13T12:33:53;99811.59;;;15.74;69.53
17362;BME280;8798;51.938;4.348;2023-03-13T12:36:25;99798.28;;;15.73;69.44
17362;BME280;8798;51.938;4.348;2023-03-13T12:39:09;99807.63;;;15.77;69.57
17362;BME280;8798;51.938;4.348;2023-03-13T12:41:42;99808.25;;;15.79;69.34
17362;BME280;8798;51.938;4.348;2023-03-13T12:44:13;99813.47;;;15.80;69.22
17362;BME280;8798;51.938;4.348;2023-03-13T12:46:45;99819.47;;;15.82;69.12
17362;BME280;8798;51.938;4.348;2023-03-13T12:49:52;99844.66;;;15.89;69.15
17362;BME280;8798;51.938;4.348;2023-03-13T12:52:37;99832.81;;;15.90;68.74
17362;BME280;8798;51.938;4.348;2023-03-13T12:55:48;99824.06;;;15.88;68.91
17362;BME280;8798;51.938;4.348;2023-03-13T12:58:28;99809.88;;;15.86;68.51
17362;BME280;8798;51.938;4.348;2023-03-13T13:01:01;99808.84;;;15.87;68.57
17362;BME280;8798;51.938;4.348;2023-03-13T13:03:32;99806.16;;;15.87;68.59
17362;BME280;8798;51.938;4.348;2023-03-13T13:06:06;99811.13;;;15.90;68.25
17362;BME280;8798;51.938;4.348;2023-03-13T13:08:37;99810.91;;;15.92;68.29
17362;BME280;8798;51.938;4.348;2023-03-13T13:11:37;99820.47;;;15.95;68.23
17362;BME280;8798;51.938;4.348;2023-03-13T13:17:25;99869.63;;;16.11;67.85
17362;BME280;8798;51.938;4.348;2023-03-13T13:19:55;99881.72;;;16.16;67.72
17362;BME280;8798;51.938;4.348;2023-03-13T13:22:46;99897.34;;;16.20;67.50
17362;BME280;8798;51.938;4.348;2023-03-13T13:25:32;99918.78;;;16.28;67.66
17362;BME280;8798;51.938;4.348;2023-03-13T13:28:23;99887.13;;;16.22;67.47